Terminal Aerodrome Forecast
Issued by NWS Blacksburg, VA

Current Version | Previous Version | Graphics & Text | Print | Product List | Glossary On
Versions: 1 2 3 4 5 6 7 8 9 10 11 12 13 14 15 16 17 18 19 20 21 22 23 24 25 26 27
000
FTUS41 KRNK 261724
TAFBLF
TAF
KBLF 261724Z 2618/2718 21005KT P6SM VCTS BKN035CB OVC050
      TEMPO 2618/2621 3SM TSRA BKN025CB
     FM270000 22006KT P6SM BKN050 OVC120
     FM270700 24004KT 4SM SHRA SCT015 OVC040
     FM271400 26008KT P6SM BKN025 BKN100=

USA.gov is the U.S. government's official web portal to all federal, state and local government web resources and services.